sensor_id;sensor_type;location;lat;lon;timestamp;P1;durP1;ratioP1;P2;durP2;ratioP2
18399;SDS011;9326;49.468;11.008;2022-10-16T03:26:23;3.63;;;2.40;;
18399;SDS011;9326;49.468;11.008;2022-10-16T03:28:50;2.77;;;2.43;;
18399;SDS011;9326;49.468;11.008;2022-10-16T03:31:18;2.63;;;2.40;;
18399;SDS011;9326;49.468;11.008;2022-10-16T03:33:45;4.27;;;2.50;;
18399;SDS011;9326;49.468;11.008;2022-10-16T03:36:12;2.73;;;2.23;;
18399;SDS011;9326;49.468;11.008;2022-10-16T03:38:39;3.70;;;2.20;;
18399;SDS011;9326;49.468;11.008;2022-10-16T03:41:06;2.63;;;2.23;;
18399;SDS011;9326;49.468;11.008;2022-10-16T03:43:34;3.83;;;2.30;;
18399;SDS011;9326;49.468;11.008;2022-10-16T03:46:02;4.77;;;2.60;;
18399;SDS011;9326;49.468;11.008;2022-10-16T03:48:29;3.57;;;2.37;;
18399;SDS011;9326;49.468;11.008;2022-10-16T03:50:57;3.17;;;2.30;;
18399;SDS011;9326;49.468;11.008;2022-10-16T03:53:24;5.23;;;2.40;;
18399;SDS011;9326;49.468;11.008;2022-10-16T03:55:51;2.60;;;2.40;;
18399;SDS011;9326;49.468;11.008;2022-10-16T03:58:18;3.47;;;2.30;;
18399;SDS011;9326;49.468;11.008;2022-10-16T04:00:47;3.23;;;2.40;;
18399;SDS011;9326;49.468;11.008;2022-10-16T04:03:14;2.50;;;2.30;;
18399;SDS011;9326;49.468;11.008;2022-10-16T04:05:42;3.40;;;2.33;;
18399;SDS011;9326;49.468;11.008;2022-10-16T04:08:09;2.53;;;2.33;;
18399;SDS011;9326;49.468;11.008;2022-10-16T04:10:36;2.53;;;2.33;;
18399;SDS011;9326;49.468;11.008;2022-10-16T04:13:03;3.33;;;2.40;;
18399;SDS011;9326;49.468;11.008;2022-10-16T04:15:30;2.33;;;2.13;;
18399;SDS011;9326;49.468;11.008;2022-10-16T04:17:58;2.93;;;2.40;;
18399;SDS011;9326;49.468;11.008;2022-10-16T04:20:25;3.33;;;2.40;;
18399;SDS011;9326;49.468;11.008;2022-10-16T04:22:52;6.60;;;2.50;;
18399;SDS011;9326;49.468;11.008;2022-10-16T04:25:19;3.53;;;2.57;;
18399;SDS011;9326;49.468;11.008;2022-10-16T04:27:46;2.63;;;2.40;;
18399;SDS011;9326;49.468;11.008;2022-10-16T04:30:14;4.60;;;2.50;;
18399;SDS011;9326;49.468;11.008;2022-10-16T04:32:41;3.17;;;2.40;;
18399;SDS011;9326;49.468;11.008;2022-10-16T04:35:09;3.00;;;2.27;;
18399;SDS011;9326;49.468;11.008;2022-10-16T04:37:36;2.70;;;2.30;;
18399;SDS011;9326;49.468;11.008;2022-10-16T04:40:04;3.67;;;2.57;;
18399;SDS011;9326;49.468;11.008;2022-10-16T04:42:31;3.40;;;2.40;;
18399;SDS011;9326;49.468;11.008;2022-10-16T04:44:58;3.20;;;2.50;;
18399;SDS011;9326;49.468;11.008;2022-10-16T04:47:25;2.60;;;2.40;;
18399;SDS011;9326;49.468;11.008;2022-10-16T04:49:52;3.10;;;2.80;;
18399;SDS011;9326;49.468;11.008;2022-10-16T04:52:21;3.07;;;2.70;;
18399;SDS011;9326;49.468;11.008;2022-10-16T04:54:49;5.13;;;2.80;;
18399;SDS011;9326;49.468;11.008;2022-10-16T04:57:16;4.43;;;2.20;;
18399;SDS011;9326;49.468;11.008;2022-10-16T04:59:43;3.60;;;2.50;;
18399;SDS011;9326;49.468;11.008;2022-10-16T05:02:11;4.00;;;2.40;;
18399;SDS011;9326;49.468;11.008;2022-10-16T05:04:38;2.93;;;2.50;;
18399;SDS011;9326;49.468;11.008;2022-10-16T05:07:05;2.90;;;2.47;;
18399;SDS011;9326;49.468;11.008;2022-10-16T05:09:33;2.80;;;2.53;;
18399;SDS011;9326;49.468;11.008;2022-10-16T05:12:00;2.87;;;2.33;;
18399;SDS011;9326;49.468;11.008;2022-10-16T05:14:28;2.70;;;2.50;;
18399;SDS011;9326;49.468;11.008;2022-10-16T05:16:55;2.40;;;2.20;;
18399;SDS011;9326;49.468;11.008;2022-10-16T05:19:22;3.40;;;2.60;;
18399;SDS011;9326;49.468;11.008;2022-10-16T05:21:50;3.37;;;3.07;;
18399;SDS011;9326;49.468;11.008;2022-10-16T05:24:17;5.03;;;2.70;;
18399;SDS011;9326;49.468;11.008;2022-10-16T05:26:45;2.90;;;2.43;;
18399;SDS011;9326;49.468;11.008;2022-10-16T05:29:12;2.77;;;2.53;;
18399;SDS011;9326;49.468;11.008;2022-10-16T05:31:39;3.50;;;2.57;;
18399;SDS011;9326;49.468;11.008;2022-10-16T05:34:06;3.60;;;2.53;;
18399;SDS011;9326;49.468;11.008;2022-10-16T05:36:33;3.70;;;2.50;;
18399;SDS011;9326;49.468;11.008;2022-10-16T05:39:00;3.07;;;2.30;;
18399;SDS011;9326;49.468;11.008;2022-10-16T05:41:28;3.13;;;2.20;;
18399;SDS011;9326;49.468;11.008;2022-10-16T05:43:56;4.43;;;2.43;;
18399;SDS011;9326;49.468;11.008;2022-10-16T05:46:23;4.67;;;2.43;;
18399;SDS011;9326;49.468;11.008;2022-10-16T05:48:51;3.13;;;2.80;;
18399;SDS011;9326;49.468;11.008;2022-10-16T05:51:18;2.83;;;2.30;;
18399;SDS011;9326;49.468;11.008;2022-10-16T05:53:46;2.93;;;2.43;;
18399;SDS011;9326;49.468;11.008;2022-10-16T05:56:13;3.47;;;2.40;;
18399;SDS011;9326;49.468;11.008;2022-10-16T05:58:40;5.43;;;3.07;;
18399;SDS011;9326;49.468;11.008;2022-10-16T06:01:11;3.47;;;2.47;;
18399;SDS011;9326;49.468;11.008;2022-10-16T06:03:38;3.17;;;2.60;;
18399;SDS011;9326;49.468;11.008;2022-10-16T06:06:09;3.30;;;2.40;;
18399;SDS011;9326;49.468;11.008;2022-10-16T06:08:36;2.70;;;2.50;;
18399;SDS011;9326;49.468;11.008;2022-10-16T06:11:04;3.17;;;2.57;;
18399;SDS011;9326;49.468;11.008;2022-10-16T06:13:32;6.13;;;2.97;;
18399;SDS011;9326;49.468;11.008;2022-10-16T06:15:59;3.27;;;2.37;;
18399;SDS011;9326;49.468;11.008;2022-10-16T06:18:28;4.63;;;3.00;;
18399;SDS011;9326;49.468;11.008;2022-10-16T06:20:55;3.53;;;2.60;;
18399;SDS011;9326;49.468;11.008;2022-10-16T06:23:23;3.60;;;2.90;;
18399;SDS011;9326;49.468;11.008;2022-10-16T06:25:50;2.93;;;2.57;;
18399;SDS011;9326;49.468;11.008;2022-10-16T06:28:17;5.13;;;2.60;;
18399;SDS011;9326;49.468;11.008;2022-10-16T06:30:45;4.40;;;2.73;;
18399;SDS011;9326;49.468;11.008;2022-10-16T06:33:12;5.63;;;2.63;;
18399;SDS011;9326;49.468;11.008;2022-10-16T06:35:40;5.60;;;2.60;;
18399;SDS011;9326;49.468;11.008;2022-10-16T06:38:07;3.73;;;2.40;;
18399;SDS011;9326;49.468;11.008;2022-10-16T06:40:34;3.77;;;2.60;;
18399;SDS011;9326;49.468;11.008;2022-10-16T06:43:01;2.87;;;2.40;;
18399;SDS011;9326;49.468;11.008;2022-10-16T06:45:28;2.77;;;2.10;;
18399;SDS011;9326;49.468;11.008;2022-10-16T06:47:55;3.60;;;2.20;;
18399;SDS011;9326;49.468;11.008;2022-10-16T06:50:23;3.57;;;2.47;;
18399;SDS011;9326;49.468;11.008;2022-10-16T06:52:51;4.33;;;2.30;;
18399;SDS011;9326;49.468;11.008;2022-10-16T06:55:18;2.13;;;2.03;;
18399;SDS011;9326;49.468;11.008;2022-10-16T06:57:46;2.97;;;2.20;;
18399;SDS011;9326;49.468;11.008;2022-10-16T07:00:13;3.30;;;2.40;;
18399;SDS011;9326;49.468;11.008;2022-10-16T07:02:40;3.73;;;2.30;;
18399;SDS011;9326;49.468;11.008;2022-10-16T07:05:08;3.27;;;2.37;;
18399;SDS011;9326;49.468;11.008;2022-10-16T07:07:35;2.80;;;2.30;;
18399;SDS011;9326;49.468;11.008;2022-10-16T07:10:03;3.50;;;2.40;;
18399;SDS011;9326;49.468;11.008;2022-10-16T07:12:31;2.87;;;2.40;;
18399;SDS011;9326;49.468;11.008;2022-10-16T07:14:58;3.67;;;2.60;;
18399;SDS011;9326;49.468;11.008;2022-10-16T07:17:25;3.23;;;2.40;;
18399;SDS011;9326;49.468;11.008;2022-10-16T07:19:52;3.03;;;2.43;;
18399;SDS011;9326;49.468;11.008;2022-10-16T07:22:20;3.37;;;2.40;;
18399;SDS011;9326;49.468;11.008;2022-10-16T07:24:47;4.60;;;2.30;;
18399;SDS011;9326;49.468;11.008;2022-10-16T07:27:16;2.80;;;2.03;;
18399;SDS011;9326;49.468;11.008;2022-10-16T07:29:43;2.20;;;2.03;;
18399;SDS011;9326;49.468;11.008;2022-10-16T07:32:10;3.83;;;2.10;;
18399;SDS011;9326;49.468;11.008;2022-10-16T07:34:37;3.77;;;2.30;;
18399;SDS011;9326;49.468;11.008;2022-10-16T07:37:04;3.03;;;2.10;;
18399;SDS011;9326;49.468;11.008;2022-10-16T07:39:31;4.33;;;2.50;;
18399;SDS011;9326;49.468;11.008;2022-10-16T07:41:58;4.90;;;2.20;;
18399;SDS011;9326;49.468;11.008;2022-10-16T07:44:27;4.83;;;2.60;;
18399;SDS011;9326;49.468;11.008;2022-10-16T07:46:54;3.13;;;2.30;;
18399;SDS011;9326;49.468;11.008;2022-10-16T07:49:21;2.53;;;2.30;;
18399;SDS011;9326;49.468;11.008;2022-10-16T07:51:48;2.20;;;2.00;;
18399;SDS011;9326;49.468;11.008;2022-10-16T07:54:15;3.27;;;2.33;;
18399;SDS011;9326;49.468;11.008;2022-10-16T07:56:42;2.67;;;2.40;;
18399;SDS011;9326;49.468;11.008;2022-10-16T07:59:10;3.47;;;2.40;;
18399;SDS011;9326;49.468;11.008;2022-10-16T08:01:38;3.60;;;2.27;;
18399;SDS011;9326;49.468;11.008;2022-10-16T08:04:07;2.63;;;2.00;;
18399;SDS011;9326;49.468;11.008;2022-10-16T08:06:35;3.73;;;1.90;;
18399;SDS011;9326;49.468;11.008;2022-10-16T08:09:02;3.83;;;2.00;;
18399;SDS011;9326;49.468;11.008;2022-10-16T08:11:30;3.43;;;2.20;;
18399;SDS011;9326;49.468;11.008;2022-10-16T08:13:57;2.70;;;2.20;;
18399;SDS011;9326;49.468;11.008;2022-10-16T08:16:24;2.40;;;2.00;;
18399;SDS011;9326;49.468;11.008;2022-10-16T08:18:52;3.50;;;2.30;;
18399;SDS011;9326;49.468;11.008;2022-10-16T08:21:20;2.10;;;1.97;;
18399;SDS011;9326;49.468;11.008;2022-10-16T08:23:48;2.77;;;2.00;;
18399;SDS011;9326;49.468;11.008;2022-10-16T08:26:15;3.13;;;2.37;;
18399;SDS011;9326;49.468;11.008;2022-10-16T08:28:42;6.13;;;1.90;;
18399;SDS011;9326;49.468;11.008;2022-10-16T08:31:10;2.97;;;2.07;;
18399;SDS011;9326;49.468;11.008;2022-10-16T08:33:38;2.57;;;2.00;;
18399;SDS011;9326;49.468;11.008;2022-10-16T08:36:06;4.03;;;2.10;;
18399;SDS011;9326;49.468;11.008;2022-10-16T08:38:34;4.87;;;2.97;;
18399;SDS011;9326;49.468;11.008;2022-10-16T08:41:18;5.33;;;3.20;;
18399;SDS011;9326;49.468;11.008;2022-10-16T08:43:54;3.40;;;3.10;;
18399;SDS011;9326;49.468;11.008;2022-10-16T08:46:30;8.30;;;7.60;;
18399;SDS011;9326;49.468;11.008;2022-10-16T08:48:59;25.83;;;23.43;;
18399;SDS011;9326;49.468;11.008;2022-10-16T08:51:29;15.07;;;13.80;;
18399;SDS011;9326;49.468;11.008;2022-10-16T08:53:58;11.37;;;10.27;;
18399;SDS011;9326;49.468;11.008;2022-10-16T08:56:25;6.80;;;5.57;;
18399;SDS011;9326;49.468;11.008;2022-10-16T08:58:53;5.20;;;4.70;;
18399;SDS011;9326;49.468;11.008;2022-10-16T09:01:21;3.53;;;2.87;;
18399;SDS011;9326;49.468;11.008;2022-10-16T09:04:03;8.37;;;4.77;;
18399;SDS011;9326;49.468;11.008;2022-10-16T09:06:37;3.80;;;2.07;;
18399;SDS011;9326;49.468;11.008;2022-10-16T09:09:17;3.40;;;2.30;;
18399;SDS011;9326;49.468;11.008;2022-10-16T09:11:48;4.63;;;2.10;;
18399;SDS011;9326;49.468;11.008;2022-10-16T09:14:28;3.97;;;2.00;;
18399;SDS011;9326;49.468;11.008;2022-10-16T09:17:03;2.00;;;1.80;;
18399;SDS011;9326;49.468;11.008;2022-10-16T09:19:34;3.20;;;1.90;;
18399;SDS011;9326;49.468;11.008;2022-10-16T09:22:09;4.60;;;2.00;;
18399;SDS011;9326;49.468;11.008;2022-10-16T09:24:37;2.80;;;1.80;;
18399;SDS011;9326;49.468;11.008;2022-10-16T09:27:04;2.53;;;1.80;;
18399;SDS011;9326;49.468;11.008;2022-10-16T09:29:31;3.43;;;1.97;;
18399;SDS011;9326;49.468;11.008;2022-10-16T09:31:58;2.77;;;1.80;;
18399;SDS011;9326;49.468;11.008;2022-10-16T09:34:34;4.03;;;1.80;;
18399;SDS011;9326;49.468;11.008;2022-10-16T09:37:03;2.77;;;1.93;;
18399;SDS011;9326;49.468;11.008;2022-10-16T09:39:41;2.73;;;1.80;;
18399;SDS011;9326;49.468;11.008;2022-10-16T09:42:10;3.43;;;1.87;;
18399;SDS011;9326;49.468;11.008;2022-10-16T09:44:38;3.07;;;2.33;;
18399;SDS011;9326;49.468;11.008;2022-10-16T09:47:11;4.40;;;2.23;;
18399;SDS011;9326;49.468;11.008;2022-10-16T09:49:39;2.57;;;2.37;;
18399;SDS011;9326;49.468;11.008;2022-10-16T09:52:16;2.40;;;2.20;;
18399;SDS011;9326;49.468;11.008;2022-10-16T09:54:50;2.53;;;2.17;;
18399;SDS011;9326;49.468;11.008;2022-10-16T09:57:17;2.20;;;2.00;;
18399;SDS011;9326;49.468;11.008;2022-10-16T09:59:48;3.07;;;2.30;;
18399;SDS011;9326;49.468;11.008;2022-10-16T10:02:16;2.70;;;2.17;;
18399;SDS011;9326;49.468;11.008;2022-10-16T10:04:45;5.07;;;2.57;;
18399;SDS011;9326;49.468;11.008;2022-10-16T10:07:16;3.40;;;2.30;;
18399;SDS011;9326;49.468;11.008;2022-10-16T10:09:44;2.77;;;2.50;;
18399;SDS011;9326;49.468;11.008;2022-10-16T10:12:20;4.07;;;2.37;;
18399;SDS011;9326;49.468;11.008;2022-10-16T10:14:48;4.17;;;2.33;;
18399;SDS011;9326;49.468;11.008;2022-10-16T10:17:17;3.57;;;2.10;;
18399;SDS011;9326;49.468;11.008;2022-10-16T10:19:49;2.87;;;2.50;;
18399;SDS011;9326;49.468;11.008;2022-10-16T10:22:22;3.50;;;2.67;;
18399;SDS011;9326;49.468;11.008;2022-10-16T10:24:56;4.37;;;3.50;;
18399;SDS011;9326;49.468;11.008;2022-10-16T10:27:25;3.80;;;2.90;;
18399;SDS011;9326;49.468;11.008;2022-10-16T10:29:57;4.57;;;3.37;;
18399;SDS011;9326;49.468;11.008;2022-10-16T10:32:27;5.30;;;2.50;;
18399;SDS011;9326;49.468;11.008;2022-10-16T10:35:05;7.90;;;2.60;;
18399;SDS011;9326;49.468;11.008;2022-10-16T10:37:41;4.20;;;2.70;;
18399;SDS011;9326;49.468;11.008;2022-10-16T10:40:15;5.67;;;2.70;;
18399;SDS011;9326;49.468;11.008;2022-10-16T10:42:46;3.80;;;3.33;;
18399;SDS011;9326;49.468;11.008;2022-10-16T10:45:18;2.70;;;2.50;;
18399;SDS011;9326;49.468;11.008;2022-10-16T10:47:56;4.13;;;3.17;;
18399;SDS011;9326;49.468;11.008;2022-10-16T10:50:29;4.60;;;2.70;;
18399;SDS011;9326;49.468;11.008;2022-10-16T10:52:59;4.03;;;2.73;;
18399;SDS011;9326;49.468;11.008;2022-10-16T10:55:29;3.03;;;2.73;;
18399;SDS011;9326;49.468;11.008;2022-10-16T10:58:04;6.20;;;4.67;;
18399;SDS011;9326;49.468;11.008;2022-10-16T11:00:35;7.23;;;3.90;;
18399;SDS011;9326;49.468;11.008;2022-10-16T11:03:12;4.00;;;2.90;;
18399;SDS011;9326;49.468;11.008;2022-10-16T11:05:40;3.87;;;3.20;;
18399;SDS011;9326;49.468;11.008;2022-10-16T11:08:11;3.87;;;3.47;;
18399;SDS011;9326;49.468;11.008;2022-10-16T11:10:42;7.63;;;3.00;;
18399;SDS011;9326;49.468;11.008;2022-10-16T11:13:16;3.77;;;2.50;;
18399;SDS011;9326;49.468;11.008;2022-10-16T11:15:46;4.40;;;3.80;;
18399;SDS011;9326;49.468;11.008;2022-10-16T11:18:15;4.57;;;2.83;;
18399;SDS011;9326;49.468;11.008;2022-10-16T11:20:45;5.90;;;2.83;;
18399;SDS011;9326;49.468;11.008;2022-10-16T11:23:14;3.93;;;2.93;;
18399;SDS011;9326;49.468;11.008;2022-10-16T11:25:43;3.27;;;3.00;;
18399;SDS011;9326;49.468;11.008;2022-10-16T11:28:11;3.93;;;3.50;;
18399;SDS011;9326;49.468;11.008;2022-10-16T11:30:41;3.00;;;1.97;;
18399;SDS011;9326;49.468;11.008;2022-10-16T11:33:17;2.73;;;2.53;;
18399;SDS011;9326;49.468;11.008;2022-10-16T11:35:47;4.40;;;3.10;;
18399;SDS011;9326;49.468;11.008;2022-10-16T11:38:16;3.60;;;2.63;;
18399;SDS011;9326;49.468;11.008;2022-10-16T11:40:47;2.10;;;2.00;;
18399;SDS011;9326;49.468;11.008;2022-10-16T11:43:17;4.80;;;2.43;;
18399;SDS011;9326;49.468;11.008;2022-10-16T11:45:48;2.13;;;1.70;;
18399;SDS011;9326;49.468;11.008;2022-10-16T11:48:18;3.67;;;1.80;;
18399;SDS011;9326;49.468;11.008;2022-10-16T11:50:49;3.57;;;2.00;;
18399;SDS011;9326;49.468;11.008;2022-10-16T11:53:20;2.10;;;1.90;;
18399;SDS011;9326;49.468;11.008;2022-10-16T11:55:48;3.83;;;1.70;;
18399;SDS011;9326;49.468;11.008;2022-10-16T11:58:20;3.10;;;1.73;;
18399;SDS011;9326;49.468;11.008;2022-10-16T12:00:53;2.53;;;1.70;;
18399;SDS011;9326;49.468;11.008;2022-10-16T12:03:25;2.13;;;1.60;;
18399;SDS011;9326;49.468;11.008;2022-10-16T12:05:59;3.13;;;2.43;;
18399;SDS011;9326;49.468;11.008;2022-10-16T12:08:29;3.33;;;2.20;;
18399;SDS011;9326;49.468;11.008;2022-10-16T12:11:06;3.30;;;1.87;;
18399;SDS011;9326;49.468;11.008;2022-10-16T12:13:34;2.50;;;1.67;;
18399;SDS011;9326;49.468;11.008;2022-10-16T12:16:07;3.90;;;3.13;;
18399;SDS011;9326;49.468;11.008;2022-10-16T12:18:46;4.53;;;2.20;;
18399;SDS011;9326;49.468;11.008;2022-10-16T12:21:14;2.17;;;1.93;;
18399;SDS011;9326;49.468;11.008;2022-10-16T12:23:46;2.30;;;2.00;;
18399;SDS011;9326;49.468;11.008;2022-10-16T12:26:14;1.83;;;1.57;;
18399;SDS011;9326;49.468;11.008;2022-10-16T12:28:50;3.30;;;1.90;;
18399;SDS011;9326;49.468;11.008;2022-10-16T12:31:18;3.47;;;1.90;;
18399;SDS011;9326;49.468;11.008;2022-10-16T12:33:53;2.83;;;1.67;;
18399;SDS011;9326;49.468;11.008;2022-10-16T12:36:26;2.47;;;2.10;;
18399;SDS011;9326;49.468;11.008;2022-10-16T12:38:54;1.90;;;1.80;;
18399;SDS011;9326;49.468;11.008;2022-10-16T12:41:25;6.43;;;3.57;;
18399;SDS011;9326;49.468;11.008;2022-10-16T12:43:52;4.73;;;2.13;;
18399;SDS011;9326;49.468;11.008;2022-10-16T12:46:33;2.30;;;1.60;;
18399;SDS011;9326;49.468;11.008;2022-10-16T12:49:06;1.80;;;1.70;;
18399;SDS011;9326;49.468;11.008;2022-10-16T12:51:34;5.83;;;2.07;;
18399;SDS011;9326;49.468;11.008;2022-10-16T12:54:02;3.13;;;1.70;;
18399;SDS011;9326;49.468;11.008;2022-10-16T12:56:34;3.03;;;1.93;;
18399;SDS011;9326;49.468;11.008;2022-10-16T12:59:06;5.10;;;4.07;;
18399;SDS011;9326;49.468;11.008;2022-10-16T13:01:43;4.37;;;3.40;;
18399;SDS011;9326;49.468;11.008;2022-10-16T13:04:28;2.40;;;1.53;;
18399;SDS011;9326;49.468;11.008;2022-10-16T13:06:59;2.83;;;1.43;;
18399;SDS011;9326;49.468;11.008;2022-10-16T13:09:33;2.83;;;1.63;;
18399;SDS011;9326;49.468;11.008;2022-10-16T13:12:06;2.33;;;1.50;;
18399;SDS011;9326;49.468;11.008;2022-10-16T13:14:47;2.30;;;1.33;;
18399;SDS011;9326;49.468;11.008;2022-10-16T13:17:20;1.40;;;1.27;;
18399;SDS011;9326;49.468;11.008;2022-10-16T13:19:51;2.17;;;1.60;;
18399;SDS011;9326;49.468;11.008;2022-10-16T13:22:23;1.37;;;1.20;;
18399;SDS011;9326;49.468;11.008;2022-10-16T13:24:54;2.23;;;1.20;;
18399;SDS011;9326;49.468;11.008;2022-10-16T13:27:26;2.03;;;1.27;;
18399;SDS011;9326;49.468;11.008;2022-10-16T13:30:00;6.10;;;5.50;;
18399;SDS011;9326;49.468;11.008;2022-10-16T13:32:29;2.53;;;1.90;;
18399;SDS011;9326;49.468;11.008;2022-10-16T13:34:57;4.27;;;2.10;;
18399;SDS011;9326;49.468;11.008;2022-10-16T13:37:26;2.00;;;1.87;;
18399;SDS011;9326;49.468;11.008;2022-10-16T13:40:02;18.37;;;15.87;;
18399;SDS011;9326;49.468;11.008;2022-10-16T13:42:29;6.00;;;4.03;;
18399;SDS011;9326;49.468;11.008;2022-10-16T13:44:56;3.07;;;1.67;;
18399;SDS011;9326;49.468;11.008;2022-10-16T13:47:24;6.23;;;4.33;;
18399;SDS011;9326;49.468;11.008;2022-10-16T13:50:00;6.80;;;6.10;;
18399;SDS011;9326;49.468;11.008;2022-10-16T13:52:27;2.77;;;2.57;;
18399;SDS011;9326;49.468;11.008;2022-10-16T13:54:54;5.40;;;4.37;;
18399;SDS011;9326;49.468;11.008;2022-10-16T13:57:22;3.03;;;2.83;;
18399;SDS011;9326;49.468;11.008;2022-10-16T13:59:50;5.83;;;4.10;;
18399;SDS011;9326;49.468;11.008;2022-10-16T14:02:19;3.00;;;2.30;;
18399;SDS011;9326;49.468;11.008;2022-10-16T14:04:46;1.83;;;1.73;;
18399;SDS011;9326;49.468;11.008;2022-10-16T14:07:17;1.60;;;1.50;;
18399;SDS011;9326;49.468;11.008;2022-10-16T14:09:47;1.90;;;1.80;;
18399;SDS011;9326;49.468;11.008;2022-10-16T14:12:14;2.23;;;1.23;;
18399;SDS011;9326;49.468;11.008;2022-10-16T14:14:42;2.10;;;1.90;;
18399;SDS011;9326;49.468;11.008;2022-10-16T14:17:13;3.03;;;2.47;;
18399;SDS011;9326;49.468;11.008;2022-10-16T14:19:40;1.73;;;1.63;;
18399;SDS011;9326;49.468;11.008;2022-10-16T14:22:18;1.90;;;1.40;;
18399;SDS011;9326;49.468;11.008;2022-10-16T14:24:48;1.87;;;1.70;;
18399;SDS011;9326;49.468;11.008;2022-10-16T14:27:28;2.10;;;1.90;;
18399;SDS011;9326;49.468;11.008;2022-10-16T14:30:12;2.60;;;1.50;;
18399;SDS011;9326;49.468;11.008;2022-10-16T14:32:40;2.50;;;2.03;;
18399;SDS011;9326;49.468;11.008;2022-10-16T14:35:21;4.03;;;2.00;;
18399;SDS011;9326;49.468;11.008;2022-10-16T14:37:52;1.73;;;1.60;;
18399;SDS011;9326;49.468;11.008;2022-10-16T14:40:19;2.17;;;1.20;;
18399;SDS011;9326;49.468;11.008;2022-10-16T14:42:47;4.87;;;3.10;;
18399;SDS011;9326;49.468;11.008;2022-10-16T14:45:15;5.27;;;2.50;;
18399;SDS011;9326;49.468;11.008;2022-10-16T14:47:49;4.23;;;2.70;;
18399;SDS011;9326;49.468;11.008;2022-10-16T14:50:16;2.40;;;2.10;;
18399;SDS011;9326;49.468;11.008;2022-10-16T14:52:43;5.27;;;4.53;;
18399;SDS011;9326;49.468;11.008;2022-10-16T14:55:12;6.00;;;5.40;;
18399;SDS011;9326;49.468;11.008;2022-10-16T14:57:39;7.67;;;5.00;;
18399;SDS011;9326;49.468;11.008;2022-10-16T15:00:09;2.77;;;2.57;;
18399;SDS011;9326;49.468;11.008;2022-10-16T15:02:37;2.23;;;1.80;;
18399;SDS011;9326;49.468;11.008;2022-10-16T15:05:10;3.37;;;2.40;;
18399;SDS011;9326;49.468;11.008;2022-10-16T15:07:37;2.40;;;1.80;;
18399;SDS011;9326;49.468;11.008;2022-10-16T15:10:05;3.13;;;1.73;;
18399;SDS011;9326;49.468;11.008;2022-10-16T15:12:33;3.73;;;3.00;;
18399;SDS011;9326;49.468;11.008;2022-10-16T15:15:00;3.97;;;3.13;;
18399;SDS011;9326;49.468;11.008;2022-10-16T15:17:27;6.63;;;4.17;;
18399;SDS011;9326;49.468;11.008;2022-10-16T15:19:54;4.10;;;2.30;;
18399;SDS011;9326;49.468;11.008;2022-10-16T15:22:23;6.37;;;3.90;;
18399;SDS011;9326;49.468;11.008;2022-10-16T15:24:50;4.13;;;3.00;;
18399;SDS011;9326;49.468;11.008;2022-10-16T15:27:17;3.87;;;3.10;;
18399;SDS011;9326;49.468;11.008;2022-10-16T15:29:45;4.70;;;3.70;;
18399;SDS011;9326;49.468;11.008;2022-10-16T15:32:12;4.90;;;4.50;;
18399;SDS011;9326;49.468;11.008;2022-10-16T15:34:40;3.63;;;3.30;;
18399;SDS011;9326;49.468;11.008;2022-10-16T15:37:08;2.07;;;1.90;;
18399;SDS011;9326;49.468;11.008;2022-10-16T15:39:37;2.57;;;2.37;;
18399;SDS011;9326;49.468;11.008;2022-10-16T15:42:04;4.33;;;4.03;;
18399;SDS011;9326;49.468;11.008;2022-10-16T15:44:31;3.40;;;3.10;;
18399;SDS011;9326;49.468;11.008;2022-10-16T15:47:00;4.30;;;3.40;;
18399;SDS011;9326;49.468;11.008;2022-10-16T15:49:27;4.27;;;3.57;;
18399;SDS011;9326;49.468;11.008;2022-10-16T15:51:54;8.33;;;7.43;;
18399;SDS011;9326;49.468;11.008;2022-10-16T15:54:21;7.43;;;6.53;;
18399;SDS011;9326;49.468;11.008;2022-10-16T15:56:48;4.17;;;3.77;;
18399;SDS011;9326;49.468;11.008;2022-10-16T15:59:15;4.00;;;2.50;;
18399;SDS011;9326;49.468;11.008;2022-10-16T16:01:42;6.00;;;5.27;;
18399;SDS011;9326;49.468;11.008;2022-10-16T16:04:10;5.73;;;5.23;;
18399;SDS011;9326;49.468;11.008;2022-10-16T16:06:37;11.13;;;8.60;;
18399;SDS011;9326;49.468;11.008;2022-10-16T16:09:09;18.00;;;12.53;;
18399;SDS011;9326;49.468;11.008;2022-10-16T16:11:36;10.77;;;5.73;;
18399;SDS011;9326;49.468;11.008;2022-10-16T16:14:03;13.63;;;9.43;;
18399;SDS011;9326;49.468;11.008;2022-10-16T16:16:30;20.50;;;11.73;;
18399;SDS011;9326;49.468;11.008;2022-10-16T16:19:01;21.83;;;13.00;;
18399;SDS011;9326;49.468;11.008;2022-10-16T16:21:31;18.03;;;11.97;;
18399;SDS011;9326;49.468;11.008;2022-10-16T16:23:58;6.77;;;5.00;;
18399;SDS011;9326;49.468;11.008;2022-10-16T16:26:26;7.43;;;6.57;;
18399;SDS011;9326;49.468;11.008;2022-10-16T16:28:56;12.97;;;9.43;;
18399;SDS011;9326;49.468;11.008;2022-10-16T16:31:23;6.77;;;5.40;;
18399;SDS011;9326;49.468;11.008;2022-10-16T16:33:51;5.40;;;4.17;;
18399;SDS011;9326;49.468;11.008;2022-10-16T16:36:18;4.30;;;3.90;;
18399;SDS011;9326;49.468;11.008;2022-10-16T16:38:46;9.03;;;5.87;;
18399;SDS011;9326;49.468;11.008;2022-10-16T16:41:13;6.30;;;5.27;;
18399;SDS011;9326;49.468;11.008;2022-10-16T16:43:41;7.50;;;6.13;;
18399;SDS011;9326;49.468;11.008;2022-10-16T16:46:08;9.70;;;7.27;;
18399;SDS011;9326;49.468;11.008;2022-10-16T16:48:35;5.27;;;4.07;;
18399;SDS011;9326;49.468;11.008;2022-10-16T16:51:03;4.77;;;3.50;;
18399;SDS011;9326;49.468;11.008;2022-10-16T16:53:30;11.43;;;10.20;;
18399;SDS011;9326;49.468;11.008;2022-10-16T16:56:01;5.80;;;5.10;;
18399;SDS011;9326;49.468;11.008;2022-10-16T16:58:28;4.80;;;4.20;;
18399;SDS011;9326;49.468;11.008;2022-10-16T17:00:55;7.30;;;4.20;;
18399;SDS011;9326;49.468;11.008;2022-10-16T17:03:25;4.67;;;4.13;;
18399;SDS011;9326;49.468;11.008;2022-10-16T17:05:55;7.23;;;4.20;;
18399;SDS011;9326;49.468;11.008;2022-10-16T17:08:23;5.60;;;3.50;;
18399;SDS011;9326;49.468;11.008;2022-10-16T17:10:50;6.87;;;4.27;;
18399;SDS011;9326;49.468;11.008;2022-10-16T17:13:21;4.93;;;3.13;;
18399;SDS011;9326;49.468;11.008;2022-10-16T17:15:48;3.70;;;2.70;;
18399;SDS011;9326;49.468;11.008;2022-10-16T17:18:15;5.07;;;2.67;;
18399;SDS011;9326;49.468;11.008;2022-10-16T17:20:43;3.83;;;2.50;;
18399;SDS011;9326;49.468;11.008;2022-10-16T17:23:10;3.73;;;2.83;;
18399;SDS011;9326;49.468;11.008;2022-10-16T17:25:38;3.73;;;3.40;;
18399;SDS011;9326;49.468;11.008;2022-10-16T17:28:05;3.53;;;2.83;;
18399;SDS011;9326;49.468;11.008;2022-10-16T17:30:34;3.90;;;2.97;;
18399;SDS011;9326;49.468;11.008;2022-10-16T17:33:02;3.97;;;3.30;;
18399;SDS011;9326;49.468;11.008;2022-10-16T17:35:29;4.17;;;3.30;;
18399;SDS011;9326;49.468;11.008;2022-10-16T17:37:56;5.67;;;3.53;;
18399;SDS011;9326;49.468;11.008;2022-10-16T17:40:24;6.50;;;3.97;;
18399;SDS011;9326;49.468;11.008;2022-10-16T17:42:51;6.63;;;4.30;;
18399;SDS011;9326;49.468;11.008;2022-10-16T17:45:18;5.47;;;3.67;;
18399;SDS011;9326;49.468;11.008;2022-10-16T17:47:47;5.73;;;3.30;;
18399;SDS011;9326;49.468;11.008;2022-10-16T17:50:14;3.83;;;3.40;;
18399;SDS011;9326;49.468;11.008;2022-10-16T17:52:41;3.83;;;3.27;;
18399;SDS011;9326;49.468;11.008;2022-10-16T17:55:08;5.07;;;3.50;;
18399;SDS011;9326;49.468;11.008;2022-10-16T17:57:35;4.07;;;3.60;;
18399;SDS011;9326;49.468;11.008;2022-10-16T18:00:02;5.27;;;3.33;;
18399;SDS011;9326;49.468;11.008;2022-10-16T18:02:29;6.10;;;3.50;;
18399;SDS011;9326;49.468;11.008;2022-10-16T18:04:58;3.93;;;3.33;;
18399;SDS011;9326;49.468;11.008;2022-10-16T18:07:26;4.57;;;3.40;;
18399;SDS011;9326;49.468;11.008;2022-10-16T18:09:53;5.30;;;3.57;;
18399;SDS011;9326;49.468;11.008;2022-10-16T18:12:20;5.23;;;3.50;;
18399;SDS011;9326;49.468;11.008;2022-10-16T18:14:47;4.00;;;3.50;;
18399;SDS011;9326;49.468;11.008;2022-10-16T18:17:14;4.03;;;3.40;;
18399;SDS011;9326;49.468;11.008;2022-10-16T18:19:43;6.30;;;5.50;;
18399;SDS011;9326;49.468;11.008;2022-10-16T18:22:11;6.90;;;4.73;;
18399;SDS011;9326;49.468;11.008;2022-10-16T18:24:38;6.63;;;4.27;;